createdAt,value
2022-10-19T00:01:13.250Z,81.26
2022-10-19T00:03:41.031Z,81.70
2022-10-19T00:06:28.950Z,81.37
2022-10-19T00:08:56.995Z,81.54
2022-10-19T00:11:24.112Z,81.71
2022-10-19T00:13:51.713Z,81.70
2022-10-19T00:16:19.311Z,81.60
2022-10-19T00:18:46.230Z,81.48
2022-10-19T00:21:15.970Z,81.42
2022-10-19T00:23:44.071Z,81.78
2022-10-19T00:26:11.208Z,81.76
2022-10-19T00:28:38.223Z,81.41
2022-10-19T00:31:07.478Z,81.80
2022-10-19T00:33:34.432Z,81.61
2022-10-19T00:36:01.763Z,81.60
2022-10-19T00:38:28.635Z,81.90
2022-10-19T00:40:55.640Z,81.43
2022-10-19T00:43:28.075Z,81.51
2022-10-19T00:45:54.928Z,81.79
2022-10-19T00:48:26.663Z,81.79
2022-10-19T00:50:56.402Z,81.79
2022-10-19T00:53:26.344Z,81.98
2022-10-19T00:55:53.441Z,81.79
2022-10-19T00:58:20.472Z,81.74
2022-10-19T01:00:47.402Z,81.86
2022-10-19T01:03:14.618Z,82.08
2022-10-19T01:05:41.651Z,81.87
2022-10-19T01:08:09.760Z,81.83
2022-10-19T01:10:57.629Z,82.39
2022-10-19T01:14:01.628Z,82.17
2022-10-19T01:16:37.609Z,82.39
2022-10-19T01:19:38.110Z,82.38
2022-10-19T01:22:23.174Z,82.71
2022-10-19T01:25:13.511Z,82.67
2022-10-19T01:28:02.396Z,82.79
2022-10-19T01:30:41.754Z,82.59
2022-10-19T01:33:29.916Z,82.60
2022-10-19T01:36:08.514Z,82.96
2022-10-19T01:38:52.693Z,82.83
2022-10-19T01:41:39.674Z,82.77
2022-10-19T01:44:26.162Z,82.79
2022-10-19T01:47:03.342Z,83.10
2022-10-19T01:50:48.080Z,83.32
2022-10-19T01:54:14.520Z,83.06
2022-10-19T02:01:33.118Z,82.99
2022-10-19T02:04:59.523Z,82.81
2022-10-19T02:08:26.129Z,82.41
2022-10-19T02:11:56.134Z,82.64
2022-10-19T02:15:23.859Z,82.54
2022-10-19T02:18:50.294Z,82.19
2022-10-19T02:22:16.922Z,82.03
2022-10-19T02:25:43.410Z,82.10
2022-10-19T02:29:09.992Z,81.57
2022-10-19T02:36:19.381Z,81.43
2022-10-19T02:39:45.831Z,81.25
2022-10-19T02:43:12.477Z,81.22
2022-10-19T02:46:41.717Z,80.87
2022-10-19T02:50:08.499Z,81.08
2022-10-19T02:53:40.339Z,80.83
2022-10-19T02:57:07.017Z,80.91
2022-10-19T03:00:33.542Z,81.07
2022-10-19T03:04:00.176Z,81.00
2022-10-19T03:11:09.356Z,80.66
2022-10-19T03:14:35.768Z,80.53
2022-10-19T03:27:43.453Z,80.66
2022-10-19T03:30:13.536Z,80.67
2022-10-19T03:32:40.239Z,80.57
2022-10-19T03:35:07.783Z,80.92
2022-10-19T03:37:34.768Z,80.59
2022-10-19T03:40:01.689Z,80.61
2022-10-19T03:42:28.622Z,80.88
2022-10-19T03:44:55.360Z,80.77
2022-10-19T03:47:22.093Z,80.83
2022-10-19T03:49:50.623Z,81.23
2022-10-19T03:52:18.919Z,80.95
2022-10-19T03:54:46.593Z,81.35
2022-10-19T03:57:13.553Z,81.49
2022-10-19T03:59:40.225Z,81.77
2022-10-19T04:02:07.777Z,81.59
2022-10-19T04:04:34.713Z,81.97
2022-10-19T04:07:01.413Z,82.07
2022-10-19T04:09:28.149Z,81.90
2022-10-19T04:11:55.035Z,82.06
2022-10-19T04:14:32.099Z,82.14
2022-10-19T04:17:01.071Z,82.49
2022-10-19T04:19:27.835Z,82.58
2022-10-19T04:21:54.474Z,82.59
2022-10-19T04:24:21.692Z,82.95
2022-10-19T04:26:54.454Z,83.05
2022-10-19T04:29:24.937Z,83.37
2022-10-19T04:31:54.727Z,83.44
2022-10-19T04:34:21.394Z,83.42
2022-10-19T04:36:48.379Z,83.79
2022-10-19T04:39:15.308Z,83.62
2022-10-19T04:41:41.955Z,83.91
2022-10-19T04:44:10.262Z,83.99
2022-10-19T04:46:40.738Z,84.24
2022-10-19T04:49:09.158Z,84.30
2022-10-19T04:51:36.152Z,84.80
2022-10-19T04:54:04.223Z,84.70
2022-10-19T04:56:32.516Z,85.00
2022-10-19T04:59:00.957Z,84.99
2022-10-19T05:01:29.660Z,85.10
2022-10-19T05:03:58.483Z,85.32
2022-10-19T05:06:26.175Z,85.13
2022-10-19T05:08:53.192Z,85.31
2022-10-19T05:11:20.199Z,85.69
2022-10-19T05:13:47.110Z,85.64
2022-10-19T05:16:18.028Z,85.92
2022-10-19T05:18:50.219Z,86.02
2022-10-19T05:21:17.863Z,86.03
2022-10-19T05:23:44.912Z,86.08
2022-10-19T05:26:20.238Z,86.02
2022-10-19T05:28:56.411Z,86.55
2022-10-19T05:31:25.816Z,86.31
2022-10-19T05:33:52.646Z,86.32
2022-10-19T05:36:27.671Z,86.54
2022-10-19T05:38:58.073Z,86.34
2022-10-19T05:41:25.908Z,86.60
2022-10-19T05:43:55.096Z,86.61
2022-10-19T05:46:22.323Z,86.84
2022-10-19T05:48:49.183Z,86.96
2022-10-19T05:51:18.879Z,86.55
2022-10-19T05:53:46.198Z,86.98
2022-10-19T05:56:18.956Z,86.98
2022-10-19T05:58:46.071Z,86.98
2022-10-19T06:01:14.045Z,87.25
2022-10-19T06:03:41.456Z,87.13
2022-10-19T06:06:09.307Z,87.38
2022-10-19T06:08:37.140Z,87.55
2022-10-19T06:11:15.819Z,87.32
2022-10-19T06:13:44.021Z,87.64
2022-10-19T06:16:12.657Z,87.61
2022-10-19T06:18:39.919Z,87.31
2022-10-19T06:21:10.685Z,87.52
2022-10-19T06:23:37.857Z,87.92
2022-10-19T06:26:07.376Z,87.69
2022-10-19T06:28:34.452Z,87.94
2022-10-19T06:31:01.475Z,87.87
2022-10-19T06:33:30.392Z,87.97
2022-10-19T06:36:04.803Z,87.73
2022-10-19T06:38:31.642Z,87.86
2022-10-19T06:40:59.236Z,88.08
2022-10-19T06:43:26.007Z,87.82
2022-10-19T06:45:52.862Z,87.86
2022-10-19T06:48:19.615Z,88.35
2022-10-19T06:50:46.318Z,88.35
2022-10-19T06:53:13.266Z,88.53
2022-10-19T06:55:39.972Z,88.51
2022-10-19T06:58:06.604Z,88.32
2022-10-19T07:00:33.472Z,88.65
2022-10-19T07:03:00.630Z,88.61
2022-10-19T07:05:27.348Z,88.77
2022-10-19T07:07:54.346Z,88.89
2022-10-19T07:10:21.053Z,88.74
2022-10-19T07:12:47.643Z,88.89
2022-10-19T07:15:14.811Z,88.99
2022-10-19T07:17:41.550Z,89.14
2022-10-19T07:20:08.738Z,89.20
2022-10-19T07:22:35.722Z,89.14
2022-10-19T07:25:02.446Z,89.25
2022-10-19T07:27:30.305Z,89.22
2022-10-19T07:29:59.563Z,89.27
2022-10-19T07:32:26.289Z,89.58
2022-10-19T07:34:53.021Z,89.60
2022-10-19T07:38:19.725Z,89.36
2022-10-19T07:45:33.291Z,89.79
2022-10-19T07:48:59.724Z,89.88
2022-10-19T07:56:18.709Z,90.05
2022-10-19T07:59:45.140Z,90.11
2022-10-19T08:07:01.086Z,90.14
2022-10-19T08:14:19.959Z,90.32
2022-10-19T08:17:46.376Z,90.00
2022-10-19T08:25:04.389Z,90.38
2022-10-19T08:28:30.967Z,90.38
2022-10-19T08:30:59.200Z,90.30
2022-10-19T08:33:26.682Z,90.44
2022-10-19T08:35:56.694Z,90.25
2022-10-19T08:38:23.678Z,90.15
2022-10-19T08:40:50.410Z,90.36
2022-10-19T08:43:28.756Z,90.45
2022-10-19T08:46:14.304Z,90.41
2022-10-19T08:48:43.447Z,90.48
2022-10-19T08:51:13.265Z,90.24
2022-10-19T08:53:54.767Z,90.26
2022-10-19T08:56:50.351Z,90.23
2022-10-19T08:59:43.086Z,90.61
2022-10-19T09:02:16.995Z,90.79
2022-10-19T09:04:49.913Z,90.73
2022-10-19T09:07:22.796Z,90.52
2022-10-19T09:09:54.769Z,90.41
2022-10-19T09:12:47.933Z,90.83
2022-10-19T09:15:28.413Z,90.68
2022-10-19T09:17:55.113Z,90.72
2022-10-19T09:20:29.784Z,90.69
2022-10-19T09:23:07.677Z,90.86
2022-10-19T09:25:39.565Z,90.43
2022-10-19T09:28:29.199Z,90.67
2022-10-19T09:31:01.817Z,90.89
2022-10-19T09:33:33.045Z,90.57
2022-10-19T09:36:02.713Z,90.65
2022-10-19T09:38:31.566Z,90.67
2022-10-19T09:41:01.613Z,90.69
2022-10-19T09:43:28.452Z,90.96
2022-10-19T09:46:18.585Z,91.07
2022-10-19T09:48:52.388Z,90.61
2022-10-19T09:51:20.786Z,90.91
2022-10-19T09:53:54.126Z,90.80
2022-10-19T09:56:26.232Z,90.93
2022-10-19T09:58:55.555Z,90.71
2022-10-19T10:01:40.110Z,90.75
2022-10-19T10:04:18.634Z,90.70
2022-10-19T10:06:48.875Z,91.03
2022-10-19T10:09:23.667Z,90.91
2022-10-19T10:11:51.398Z,91.04
2022-10-19T10:14:23.917Z,90.67
2022-10-19T10:16:56.740Z,91.13
2022-10-19T10:19:28.295Z,91.01
2022-10-19T10:21:58.204Z,91.06
2022-10-19T10:24:30.461Z,91.06
2022-10-19T10:27:05.926Z,90.94
2022-10-19T10:29:35.513Z,91.06
2022-10-19T10:32:13.855Z,91.10
2022-10-19T10:34:53.080Z,91.09
2022-10-19T10:37:29.692Z,91.19
2022-10-19T10:40:01.752Z,90.90
2022-10-19T10:42:38.199Z,90.88
2022-10-19T10:45:09.964Z,90.99
2022-10-19T10:47:39.533Z,90.75
2022-10-19T10:50:07.497Z,91.20
2022-10-19T10:52:36.156Z,90.70
2022-10-19T10:55:18.307Z,91.23
2022-10-19T10:57:49.741Z,90.80
2022-10-19T11:00:20.019Z,90.73
2022-10-19T11:02:52.650Z,90.83
2022-10-19T11:05:27.363Z,90.93
2022-10-19T11:08:03.573Z,91.03
2022-10-19T11:10:34.464Z,91.08
2022-10-19T11:13:28.696Z,90.72
2022-10-19T11:16:05.272Z,91.06
2022-10-19T11:18:42.468Z,90.82
2022-10-19T11:21:14.931Z,91.03
2022-10-19T11:23:48.480Z,90.87
2022-10-19T11:26:30.565Z,90.84
2022-10-19T11:29:06.290Z,90.94
2022-10-19T11:31:33.034Z,91.08
2022-10-19T11:34:04.502Z,91.12
2022-10-19T11:36:56.175Z,90.70
2022-10-19T11:39:47.672Z,90.92
2022-10-19T11:42:14.499Z,91.03
2022-10-19T11:45:05.882Z,91.04
2022-10-19T11:47:51.782Z,90.88
2022-10-19T11:50:38.458Z,90.70
2022-10-19T11:53:08.147Z,90.68
2022-10-19T11:55:56.356Z,90.92
2022-10-19T11:58:41.352Z,90.69
2022-10-19T12:01:25.397Z,90.71
2022-10-19T12:04:22.597Z,90.99
2022-10-19T12:07:20.693Z,90.43
2022-10-19T12:09:56.698Z,90.99
2022-10-19T12:12:35.604Z,90.87
2022-10-19T12:15:11.770Z,90.90
2022-10-19T12:17:41.789Z,90.66
2022-10-19T12:20:35.327Z,90.89
2022-10-19T12:23:21.565Z,90.91
2022-10-19T12:25:49.680Z,90.59
2022-10-19T12:28:26.872Z,90.76
2022-10-19T12:30:55.070Z,90.97
2022-10-19T12:33:53.729Z,90.56
2022-10-19T12:37:33.669Z,90.97
2022-10-19T12:40:43.351Z,90.75
2022-10-19T12:44:16.217Z,90.64
2022-10-19T12:51:06.156Z,90.78
2022-10-19T12:54:32.590Z,91.04
2022-10-19T12:57:29.924Z,90.67
2022-10-19T13:00:20.431Z,91.06
2022-10-19T13:02:55.683Z,90.97
2022-10-19T13:05:24.675Z,90.90
2022-10-19T13:07:52.254Z,90.89
2022-10-19T13:10:23.624Z,91.01
2022-10-19T13:12:51.075Z,90.60
2022-10-19T13:15:36.252Z,90.67
2022-10-19T13:18:15.866Z,90.71
2022-10-19T13:20:53.382Z,90.64
2022-10-19T13:23:28.959Z,90.87
2022-10-19T13:26:39.912Z,90.59
2022-10-19T13:29:24.827Z,90.41
2022-10-19T13:31:51.850Z,90.60
2022-10-19T13:34:18.657Z,90.29
2022-10-19T13:37:03.364Z,90.67
2022-10-19T13:39:30.368Z,90.31
2022-10-19T13:41:57.424Z,90.41
2022-10-19T13:44:31.361Z,90.44
2022-10-19T13:47:47.652Z,89.91
2022-10-19T13:50:14.394Z,90.19
2022-10-19T13:53:03.098Z,89.74
2022-10-19T13:56:00.590Z,89.66
2022-10-19T13:58:39.093Z,89.58
2022-10-19T14:01:31.870Z,89.33
2022-10-19T14:04:13.969Z,89.38
2022-10-19T14:07:05.152Z,89.35
2022-10-19T14:09:40.816Z,89.24
2022-10-19T14:12:16.166Z,89.03
2022-10-19T14:14:44.878Z,89.46
2022-10-19T14:20:02.227Z,89.08
2022-10-19T14:22:33.608Z,88.75
2022-10-19T14:25:06.803Z,88.98
2022-10-19T14:27:35.137Z,88.87
2022-10-19T14:30:02.485Z,88.60
2022-10-19T14:32:30.256Z,88.73
2022-10-19T14:37:36.969Z,88.63
2022-10-19T14:40:06.373Z,88.60
2022-10-19T14:42:42.349Z,88.01
2022-10-19T14:45:15.013Z,88.05
2022-10-19T14:47:55.794Z,88.43
2022-10-19T14:50:54.853Z,88.33
2022-10-19T14:53:32.046Z,88.22
2022-10-19T14:56:03.879Z,88.01
2022-10-19T14:58:38.569Z,88.04
2022-10-19T15:01:06.297Z,88.23
2022-10-19T15:03:33.634Z,88.07
2022-10-19T15:06:04.733Z,88.06
2022-10-19T15:08:47.943Z,88.09
2022-10-19T15:11:30.517Z,88.03
2022-10-19T15:14:22.209Z,87.63
2022-10-19T15:16:59.345Z,87.71
2022-10-19T15:19:39.521Z,88.10
2022-10-19T15:22:09.008Z,87.87
2022-10-19T15:24:36.728Z,87.95
2022-10-19T15:27:31.509Z,87.60
2022-10-19T15:30:05.260Z,87.97
2022-10-19T15:32:36.082Z,87.48
2022-10-19T15:35:12.123Z,87.99
2022-10-19T15:37:45.450Z,87.83
2022-10-19T15:40:19.034Z,87.46
2022-10-19T15:42:49.009Z,87.42
2022-10-19T15:45:31.829Z,87.91
2022-10-19T15:48:10.629Z,87.79
2022-10-19T15:50:45.108Z,87.86
2022-10-19T15:53:12.088Z,87.32
2022-10-19T15:55:38.782Z,87.23
2022-10-19T15:58:05.642Z,87.69
2022-10-19T16:00:32.974Z,87.45
2022-10-19T16:02:59.817Z,87.25
2022-10-19T16:05:26.563Z,87.34
2022-10-19T16:07:53.694Z,87.36
2022-10-19T16:10:27.419Z,87.17
2022-10-19T16:12:54.723Z,87.47
2022-10-19T16:15:23.441Z,87.21
2022-10-19T16:17:56.486Z,87.25
2022-10-19T16:20:25.165Z,86.86
2022-10-19T16:22:52.874Z,86.87
2022-10-19T16:25:20.461Z,87.02
2022-10-19T16:27:47.237Z,86.90
2022-10-19T16:30:14.089Z,86.79
2022-10-19T16:35:10.130Z,86.88
2022-10-19T16:37:37.375Z,86.46
2022-10-19T16:40:05.431Z,86.74
2022-10-19T16:42:33.372Z,86.48
2022-10-19T16:45:01.368Z,86.19
2022-10-19T16:47:28.267Z,86.63
2022-10-19T16:50:02.482Z,86.47
2022-10-19T16:52:32.254Z,86.31
2022-10-19T16:54:59.966Z,86.48
2022-10-19T16:57:26.890Z,85.93
2022-10-19T16:59:54.745Z,86.18
2022-10-19T17:02:22.519Z,85.82
2022-10-19T17:04:49.224Z,85.80
2022-10-19T17:07:16.672Z,86.04
2022-10-19T17:09:43.518Z,85.88
2022-10-19T17:12:11.367Z,85.91
2022-10-19T17:14:40.595Z,85.89
2022-10-19T17:21:51.092Z,85.45
2022-10-19T17:25:17.529Z,85.34
2022-10-19T17:28:44.153Z,85.17
2022-10-19T17:32:13.735Z,85.40
2022-10-19T17:39:33.118Z,84.90
2022-10-19T17:42:59.750Z,84.86
2022-10-19T17:50:08.262Z,84.82
2022-10-19T17:53:34.673Z,85.03
2022-10-19T18:00:53.677Z,84.61
2022-10-19T18:04:20.130Z,84.80
2022-10-19T18:10:38.827Z,84.44
2022-10-19T18:13:05.618Z,84.46
2022-10-19T18:15:32.279Z,84.89
2022-10-19T18:17:59.726Z,84.50
2022-10-19T18:20:26.620Z,84.82
2022-10-19T18:22:53.358Z,84.36
2022-10-19T18:25:25.850Z,84.74
2022-10-19T18:28:02.722Z,84.74
2022-10-19T18:30:29.859Z,84.55
2022-10-19T18:32:56.543Z,84.71
2022-10-19T18:35:23.328Z,84.28
2022-10-19T18:37:51.778Z,84.39
2022-10-19T18:40:18.499Z,84.39
2022-10-19T18:42:45.404Z,84.49
2022-10-19T18:45:12.463Z,84.52
2022-10-19T18:47:39.189Z,84.52
2022-10-19T18:50:06.399Z,84.21
2022-10-19T18:52:36.527Z,84.45
2022-10-19T18:55:03.981Z,84.31
2022-10-19T18:57:31.888Z,84.15
2022-10-19T18:59:59.374Z,84.41
2022-10-19T19:02:34.725Z,84.53
2022-10-19T19:05:02.337Z,84.42
2022-10-19T19:07:29.271Z,84.08
2022-10-19T19:09:56.042Z,84.08
2022-10-19T19:12:23.765Z,84.46
2022-10-19T19:14:50.524Z,84.47
2022-10-19T19:17:17.330Z,84.29
2022-10-19T19:19:44.665Z,84.43
2022-10-19T19:22:11.358Z,84.22
2022-10-19T19:24:38.208Z,84.18
2022-10-19T19:27:05.198Z,84.52
2022-10-19T19:29:32.134Z,84.26
2022-10-19T19:31:59.017Z,84.14
2022-10-19T19:34:26.064Z,84.22
2022-10-19T19:36:52.782Z,84.40
2022-10-19T19:39:21.298Z,84.12
2022-10-19T19:41:49.841Z,84.18
2022-10-19T19:44:17.421Z,84.36
2022-10-19T19:46:44.564Z,83.92
2022-10-19T19:49:11.978Z,84.04
2022-10-19T19:51:38.876Z,84.11
2022-10-19T19:54:05.880Z,83.99
2022-10-19T19:56:33.111Z,84.09
2022-10-19T19:59:03.827Z,84.26
2022-10-19T20:01:31.362Z,84.40
2022-10-19T20:03:59.935Z,84.34
2022-10-19T20:06:26.986Z,84.29
2022-10-19T20:08:55.588Z,84.07
2022-10-19T20:11:24.536Z,84.11
2022-10-19T20:13:51.495Z,84.30
2022-10-19T20:16:30.362Z,84.46
2022-10-19T20:19:04.011Z,84.39
2022-10-19T20:21:32.137Z,84.16
2022-10-19T20:23:59.508Z,83.99
2022-10-19T20:26:26.879Z,84.31
2022-10-19T20:28:54.282Z,84.29
2022-10-19T20:31:21.473Z,84.28
2022-10-19T20:33:48.440Z,84.17
2022-10-19T20:36:22.245Z,84.46
2022-10-19T20:38:54.417Z,84.44
2022-10-19T20:41:23.596Z,84.54
2022-10-19T20:43:51.815Z,84.45
2022-10-19T20:46:22.346Z,84.32
2022-10-19T20:48:50.475Z,84.40
2022-10-19T20:51:30.667Z,84.30
2022-10-19T20:54:00.542Z,84.34
2022-10-19T20:56:29.955Z,84.85
2022-10-19T20:59:05.735Z,85.00
2022-10-19T21:01:34.809Z,84.86
2022-10-19T21:04:04.725Z,85.19
2022-10-19T21:06:35.048Z,85.30
2022-10-19T21:09:01.930Z,85.38
2022-10-19T21:11:31.903Z,85.38
2022-10-19T21:14:04.590Z,85.74
2022-10-19T21:16:34.066Z,85.68
2022-10-19T21:19:02.102Z,85.94
2022-10-19T21:21:31.558Z,85.99
2022-10-19T21:24:04.845Z,86.10
2022-10-19T21:26:33.897Z,86.67
2022-10-19T21:29:01.830Z,86.69
2022-10-19T21:31:28.924Z,86.55
2022-10-19T21:33:55.977Z,87.08
2022-10-19T21:36:25.368Z,86.89
2022-10-19T21:39:52.125Z,87.17
2022-10-19T21:43:18.598Z,87.56
2022-10-19T21:46:45.257Z,87.81
2022-10-19T21:50:11.702Z,87.68
2022-10-19T21:57:30.390Z,87.89
2022-10-19T22:00:57.053Z,88.19
2022-10-19T22:04:23.818Z,88.73
2022-10-19T22:06:50.923Z,88.49
2022-10-19T22:09:20.515Z,88.46
2022-10-19T22:11:47.803Z,88.82
2022-10-19T22:14:16.499Z,88.67
2022-10-19T22:16:43.927Z,89.04
2022-10-19T22:19:11.530Z,89.20
2022-10-19T22:24:13.685Z,89.34
2022-10-19T22:26:43.472Z,89.15
2022-10-19T22:29:10.125Z,89.33
2022-10-19T22:31:37.501Z,89.31
2022-10-19T22:34:12.067Z,89.59
2022-10-19T22:36:38.978Z,89.41
2022-10-19T22:39:05.675Z,89.37
2022-10-19T22:42:19.079Z,89.36
2022-10-19T22:44:46.487Z,89.61
2022-10-19T22:47:13.146Z,89.78
2022-10-19T22:49:39.904Z,89.91
2022-10-19T22:52:06.600Z,89.99
2022-10-19T22:54:33.245Z,90.04
2022-10-19T22:56:59.997Z,89.78
2022-10-19T22:59:26.742Z,89.92
2022-10-19T23:01:53.585Z,89.91
2022-10-19T23:04:21.507Z,90.07
2022-10-19T23:06:48.186Z,90.39
2022-10-19T23:09:35.051Z,89.95
2022-10-19T23:12:01.993Z,90.03
2022-10-19T23:14:28.701Z,90.35
2022-10-19T23:16:55.558Z,90.05
2022-10-19T23:19:22.208Z,89.97
2022-10-19T23:21:48.933Z,90.08
2022-10-19T23:24:16.201Z,90.33
2022-10-19T23:26:42.903Z,90.16
2022-10-19T23:29:10.574Z,90.24
2022-10-19T23:31:38.444Z,90.20
2022-10-19T23:34:05.090Z,90.56
2022-10-19T23:36:31.747Z,90.31
2022-10-19T23:38:59.308Z,90.45
2022-10-19T23:41:26.068Z,90.17
2022-10-19T23:43:52.723Z,90.67
2022-10-19T23:46:20.134Z,90.23
2022-10-19T23:48:46.783Z,90.56
2022-10-19T23:51:16.269Z,90.68
2022-10-19T23:53:45.659Z,90.74
2022-10-19T23:56:13.638Z,90.57
2022-10-19T23:59:40.227Z,90.57
